sensor_id;sensor_type;location;lat;lon;timestamp;temperature;humidity
7654;DHT22;3869;48.406;10.774;2022-11-15T00:01:15;4.90;99.90
7654;DHT22;3869;48.406;10.774;2022-11-15T00:03:45;4.90;99.90
7654;DHT22;3869;48.406;10.774;2022-11-15T00:06:13;4.90;99.90
7654;DHT22;3869;48.406;10.774;2022-11-15T00:08:41;4.90;99.90
7654;DHT22;3869;48.406;10.774;2022-11-15T00:11:10;5.00;99.90
7654;DHT22;3869;48.406;10.774;2022-11-15T00:13:39;4.90;99.90
7654;DHT22;3869;48.406;10.774;2022-11-15T00:16:08;4.90;99.90
7654;DHT22;3869;48.406;10.774;2022-11-15T00:18:38;4.90;99.90
7654;DHT22;3869;48.406;10.774;2022-11-15T00:21:11;5.00;99.90
7654;DHT22;3869;48.406;10.774;2022-11-15T00:23:40;5.00;99.90
7654;DHT22;3869;48.406;10.774;2022-11-15T00:26:11;5.00;99.90
7654;DHT22;3869;48.406;10.774;2022-11-15T00:28:39;5.00;99.90
7654;DHT22;3869;48.406;10.774;2022-11-15T00:31:12;5.00;99.90
7654;DHT22;3869;48.406;10.774;2022-11-15T00:33:44;5.00;99.90
7654;DHT22;3869;48.406;10.774;2022-11-15T00:36:12;5.00;99.90
7654;DHT22;3869;48.406;10.774;2022-11-15T00:38:40;5.00;99.90
7654;DHT22;3869;48.406;10.774;2022-11-15T00:41:09;5.00;99.90
7654;DHT22;3869;48.406;10.774;2022-11-15T00:43:37;5.00;99.90
7654;DHT22;3869;48.406;10.774;2022-11-15T00:46:06;4.90;99.90
7654;DHT22;3869;48.406;10.774;2022-11-15T00:48:36;4.90;99.90
7654;DHT22;3869;48.406;10.774;2022-11-15T00:51:05;4.90;99.90
7654;DHT22;3869;48.406;10.774;2022-11-15T00:53:34;5.00;99.90
7654;DHT22;3869;48.406;10.774;2022-11-15T00:56:02;5.00;99.90
7654;DHT22;3869;48.406;10.774;2022-11-15T00:58:30;5.00;99.90
7654;DHT22;3869;48.406;10.774;2022-11-15T01:01:06;5.00;99.90
7654;DHT22;3869;48.406;10.774;2022-11-15T01:03:35;5.00;99.90
7654;DHT22;3869;48.406;10.774;2022-11-15T01:06:05;5.00;99.90
7654;DHT22;3869;48.406;10.774;2022-11-15T01:08:33;4.90;99.90
7654;DHT22;3869;48.406;10.774;2022-11-15T01:11:02;4.90;99.90
7654;DHT22;3869;48.406;10.774;2022-11-15T01:13:31;4.90;99.90
7654;DHT22;3869;48.406;10.774;2022-11-15T01:16:05;4.90;99.90
7654;DHT22;3869;48.406;10.774;2022-11-15T01:18:33;4.90;99.90
7654;DHT22;3869;48.406;10.774;2022-11-15T01:21:07;4.90;99.90
7654;DHT22;3869;48.406;10.774;2022-11-15T01:23:35;4.80;99.90
7654;DHT22;3869;48.406;10.774;2022-11-15T01:26:04;4.80;99.90
7654;DHT22;3869;48.406;10.774;2022-11-15T01:28:34;4.70;99.90
7654;DHT22;3869;48.406;10.774;2022-11-15T01:31:04;4.70;99.90
7654;DHT22;3869;48.406;10.774;2022-11-15T01:33:34;4.70;99.90
7654;DHT22;3869;48.406;10.774;2022-11-15T01:36:05;4.70;99.90
7654;DHT22;3869;48.406;10.774;2022-11-15T01:38:33;4.60;99.90
7654;DHT22;3869;48.406;10.774;2022-11-15T01:41:02;4.60;99.90
7654;DHT22;3869;48.406;10.774;2022-11-15T01:43:32;4.60;99.90
7654;DHT22;3869;48.406;10.774;2022-11-15T01:46:03;4.50;99.90
7654;DHT22;3869;48.406;10.774;2022-11-15T01:48:33;4.40;99.90
7654;DHT22;3869;48.406;10.774;2022-11-15T01:51:06;4.30;99.90
7654;DHT22;3869;48.406;10.774;2022-11-15T01:53:37;4.30;99.90
7654;DHT22;3869;48.406;10.774;2022-11-15T01:56:09;4.30;99.90
7654;DHT22;3869;48.406;10.774;2022-11-15T01:58:40;4.30;99.90
7654;DHT22;3869;48.406;10.774;2022-11-15T02:01:08;4.20;99.90
7654;DHT22;3869;48.406;10.774;2022-11-15T02:03:42;4.20;99.90
7654;DHT22;3869;48.406;10.774;2022-11-15T02:06:13;4.20;99.90
7654;DHT22;3869;48.406;10.774;2022-11-15T02:08:42;4.10;99.90
7654;DHT22;3869;48.406;10.774;2022-11-15T02:11:10;4.10;99.90
7654;DHT22;3869;48.406;10.774;2022-11-15T02:13:39;4.10;99.90
7654;DHT22;3869;48.406;10.774;2022-11-15T02:16:13;4.10;99.90
7654;DHT22;3869;48.406;10.774;2022-11-15T02:18:48;4.10;99.90
7654;DHT22;3869;48.406;10.774;2022-11-15T02:21:21;4.10;99.90
7654;DHT22;3869;48.406;10.774;2022-11-15T02:27:24;4.00;99.90
7654;DHT22;3869;48.406;10.774;2022-11-15T02:30:15;4.00;99.90
7654;DHT22;3869;48.406;10.774;2022-11-15T02:32:45;4.00;99.90
7654;DHT22;3869;48.406;10.774;2022-11-15T02:35:23;4.00;99.90
7654;DHT22;3869;48.406;10.774;2022-11-15T02:37:57;3.90;99.90
7654;DHT22;3869;48.406;10.774;2022-11-15T02:40:35;3.90;99.90
7654;DHT22;3869;48.406;10.774;2022-11-15T02:43:10;3.90;99.90
7654;DHT22;3869;48.406;10.774;2022-11-15T02:46:02;3.90;99.90
7654;DHT22;3869;48.406;10.774;2022-11-15T02:48:34;3.90;99.90
7654;DHT22;3869;48.406;10.774;2022-11-15T02:51:03;3.80;99.90
7654;DHT22;3869;48.406;10.774;2022-11-15T02:53:31;3.80;99.90
7654;DHT22;3869;48.406;10.774;2022-11-15T02:55:59;3.70;99.90
7654;DHT22;3869;48.406;10.774;2022-11-15T03:01:36;3.70;99.90
7654;DHT22;3869;48.406;10.774;2022-11-15T03:04:16;3.60;99.90
7654;DHT22;3869;48.406;10.774;2022-11-15T03:06:51;3.60;99.90
7654;DHT22;3869;48.406;10.774;2022-11-15T03:09:28;3.60;99.90
7654;DHT22;3869;48.406;10.774;2022-11-15T03:12:03;3.60;99.90
7654;DHT22;3869;48.406;10.774;2022-11-15T03:14:36;3.60;99.90
7654;DHT22;3869;48.406;10.774;2022-11-15T03:17:14;3.60;99.90
7654;DHT22;3869;48.406;10.774;2022-11-15T03:19:45;3.60;99.90
7654;DHT22;3869;48.406;10.774;2022-11-15T03:22:17;3.60;99.90
7654;DHT22;3869;48.406;10.774;2022-11-15T03:24:47;3.70;99.90
7654;DHT22;3869;48.406;10.774;2022-11-15T03:27:21;3.60;99.90
7654;DHT22;3869;48.406;10.774;2022-11-15T03:29:53;3.60;99.90
7654;DHT22;3869;48.406;10.774;2022-11-15T03:32:26;3.50;99.90
7654;DHT22;3869;48.406;10.774;2022-11-15T03:34:58;3.50;99.90
7654;DHT22;3869;48.406;10.774;2022-11-15T03:37:31;3.50;99.90
7654;DHT22;3869;48.406;10.774;2022-11-15T03:40:02;3.50;99.90
7654;DHT22;3869;48.406;10.774;2022-11-15T03:42:33;3.50;99.90
7654;DHT22;3869;48.406;10.774;2022-11-15T03:45:09;3.50;99.90
7654;DHT22;3869;48.406;10.774;2022-11-15T03:47:45;3.50;99.90
7654;DHT22;3869;48.406;10.774;2022-11-15T03:50:17;3.50;99.90
7654;DHT22;3869;48.406;10.774;2022-11-15T03:52:46;3.40;99.90
7654;DHT22;3869;48.406;10.774;2022-11-15T03:55:17;3.40;99.90
7654;DHT22;3869;48.406;10.774;2022-11-15T03:57:46;3.40;99.90
7654;DHT22;3869;48.406;10.774;2022-11-15T04:00:15;3.40;99.90
7654;DHT22;3869;48.406;10.774;2022-11-15T04:02:45;3.40;99.90
7654;DHT22;3869;48.406;10.774;2022-11-15T04:05:13;3.40;99.90
7654;DHT22;3869;48.406;10.774;2022-11-15T04:07:41;3.30;99.90
7654;DHT22;3869;48.406;10.774;2022-11-15T04:10:11;3.30;99.90
7654;DHT22;3869;48.406;10.774;2022-11-15T04:12:41;3.30;99.90
7654;DHT22;3869;48.406;10.774;2022-11-15T04:15:12;3.20;99.90
7654;DHT22;3869;48.406;10.774;2022-11-15T04:17:42;3.20;99.90
7654;DHT22;3869;48.406;10.774;2022-11-15T04:20:14;3.20;99.90
7654;DHT22;3869;48.406;10.774;2022-11-15T04:23:01;3.20;99.90
7654;DHT22;3869;48.406;10.774;2022-11-15T04:25:50;3.20;99.90
7654;DHT22;3869;48.406;10.774;2022-11-15T04:28:19;3.20;99.90
7654;DHT22;3869;48.406;10.774;2022-11-15T04:30:47;3.30;99.90
7654;DHT22;3869;48.406;10.774;2022-11-15T04:33:15;3.20;99.90
7654;DHT22;3869;48.406;10.774;2022-11-15T04:35:44;3.30;99.90
7654;DHT22;3869;48.406;10.774;2022-11-15T04:38:33;3.20;99.90
7654;DHT22;3869;48.406;10.774;2022-11-15T04:41:00;3.20;99.90
7654;DHT22;3869;48.406;10.774;2022-11-15T04:43:28;3.10;99.90
7654;DHT22;3869;48.406;10.774;2022-11-15T04:45:56;3.10;99.90
7654;DHT22;3869;48.406;10.774;2022-11-15T04:48:24;3.10;99.90
7654;DHT22;3869;48.406;10.774;2022-11-15T04:50:54;3.10;99.90
7654;DHT22;3869;48.406;10.774;2022-11-15T04:53:21;3.00;99.90
7654;DHT22;3869;48.406;10.774;2022-11-15T04:55:49;3.00;99.90
7654;DHT22;3869;48.406;10.774;2022-11-15T04:58:17;3.00;99.90
7654;DHT22;3869;48.406;10.774;2022-11-15T05:00:45;2.90;99.90
7654;DHT22;3869;48.406;10.774;2022-11-15T05:03:13;2.80;99.90
7654;DHT22;3869;48.406;10.774;2022-11-15T05:06:00;2.80;99.90
7654;DHT22;3869;48.406;10.774;2022-11-15T05:08:29;2.80;99.90
7654;DHT22;3869;48.406;10.774;2022-11-15T05:10:57;2.80;99.90
7654;DHT22;3869;48.406;10.774;2022-11-15T05:13:25;2.80;99.90
7654;DHT22;3869;48.406;10.774;2022-11-15T05:15:53;2.80;99.90
7654;DHT22;3869;48.406;10.774;2022-11-15T05:18:21;2.80;99.90
7654;DHT22;3869;48.406;10.774;2022-11-15T05:20:49;2.80;99.90
7654;DHT22;3869;48.406;10.774;2022-11-15T05:23:18;2.80;99.90
7654;DHT22;3869;48.406;10.774;2022-11-15T05:25:47;2.80;99.90
7654;DHT22;3869;48.406;10.774;2022-11-15T05:28:14;2.80;99.90
7654;DHT22;3869;48.406;10.774;2022-11-15T05:30:42;2.90;99.90
7654;DHT22;3869;48.406;10.774;2022-11-15T05:33:11;2.80;99.90
7654;DHT22;3869;48.406;10.774;2022-11-15T05:35:41;2.80;99.90
7654;DHT22;3869;48.406;10.774;2022-11-15T05:38:09;2.80;99.90
7654;DHT22;3869;48.406;10.774;2022-11-15T05:40:39;2.80;99.90
7654;DHT22;3869;48.406;10.774;2022-11-15T05:43:07;2.80;99.90
7654;DHT22;3869;48.406;10.774;2022-11-15T05:45:36;2.70;99.90
7654;DHT22;3869;48.406;10.774;2022-11-15T05:48:06;2.80;99.90
7654;DHT22;3869;48.406;10.774;2022-11-15T05:50:36;2.70;99.90
7654;DHT22;3869;48.406;10.774;2022-11-15T05:53:06;2.70;99.90
7654;DHT22;3869;48.406;10.774;2022-11-15T05:55:34;2.60;99.90
7654;DHT22;3869;48.406;10.774;2022-11-15T05:58:03;2.60;99.90
7654;DHT22;3869;48.406;10.774;2022-11-15T06:00:31;2.60;99.90
7654;DHT22;3869;48.406;10.774;2022-11-15T06:02:59;2.60;99.90
7654;DHT22;3869;48.406;10.774;2022-11-15T06:05:27;2.60;99.90
7654;DHT22;3869;48.406;10.774;2022-11-15T06:07:57;2.60;99.90
7654;DHT22;3869;48.406;10.774;2022-11-15T06:10:26;2.50;99.90
7654;DHT22;3869;48.406;10.774;2022-11-15T06:12:57;2.40;99.90
7654;DHT22;3869;48.406;10.774;2022-11-15T06:15:27;2.40;99.90
7654;DHT22;3869;48.406;10.774;2022-11-15T06:17:56;2.30;99.90
7654;DHT22;3869;48.406;10.774;2022-11-15T06:20:25;2.40;99.90
7654;DHT22;3869;48.406;10.774;2022-11-15T06:22:56;2.40;99.90
7654;DHT22;3869;48.406;10.774;2022-11-15T06:25:25;2.40;99.90
7654;DHT22;3869;48.406;10.774;2022-11-15T06:27:54;2.40;99.90
7654;DHT22;3869;48.406;10.774;2022-11-15T06:30:23;2.30;99.90
7654;DHT22;3869;48.406;10.774;2022-11-15T06:32:58;2.30;99.90
7654;DHT22;3869;48.406;10.774;2022-11-15T06:35:27;2.20;99.90
7654;DHT22;3869;48.406;10.774;2022-11-15T06:37:55;2.20;99.90
7654;DHT22;3869;48.406;10.774;2022-11-15T06:40:24;2.20;99.90
7654;DHT22;3869;48.406;10.774;2022-11-15T06:42:57;2.30;99.90
7654;DHT22;3869;48.406;10.774;2022-11-15T06:45:25;2.40;99.90
7654;DHT22;3869;48.406;10.774;2022-11-15T06:47:54;2.40;99.90
7654;DHT22;3869;48.406;10.774;2022-11-15T06:50:23;2.40;99.90
7654;DHT22;3869;48.406;10.774;2022-11-15T06:52:51;2.50;99.90
7654;DHT22;3869;48.406;10.774;2022-11-15T06:55:19;2.50;99.90
7654;DHT22;3869;48.406;10.774;2022-11-15T06:57:48;2.60;99.90
7654;DHT22;3869;48.406;10.774;2022-11-15T07:00:18;2.60;99.90
7654;DHT22;3869;48.406;10.774;2022-11-15T07:02:46;2.60;99.90
7654;DHT22;3869;48.406;10.774;2022-11-15T07:05:16;2.60;99.90
7654;DHT22;3869;48.406;10.774;2022-11-15T07:07:51;2.60;99.90
7654;DHT22;3869;48.406;10.774;2022-11-15T07:10:20;2.60;99.90
7654;DHT22;3869;48.406;10.774;2022-11-15T07:12:48;2.60;99.90
7654;DHT22;3869;48.406;10.774;2022-11-15T07:15:17;2.70;99.90
7654;DHT22;3869;48.406;10.774;2022-11-15T07:17:45;2.70;99.90
7654;DHT22;3869;48.406;10.774;2022-11-15T07:20:15;2.70;99.90
7654;DHT22;3869;48.406;10.774;2022-11-15T07:22:43;2.70;99.90
7654;DHT22;3869;48.406;10.774;2022-11-15T07:25:12;2.80;99.90
7654;DHT22;3869;48.406;10.774;2022-11-15T07:27:40;2.80;99.90
7654;DHT22;3869;48.406;10.774;2022-11-15T07:30:09;2.90;99.90
7654;DHT22;3869;48.406;10.774;2022-11-15T07:32:41;2.90;99.90
7654;DHT22;3869;48.406;10.774;2022-11-15T07:35:09;3.00;99.90
7654;DHT22;3869;48.406;10.774;2022-11-15T07:37:38;3.10;99.90
7654;DHT22;3869;48.406;10.774;2022-11-15T07:40:07;3.10;99.90
7654;DHT22;3869;48.406;10.774;2022-11-15T07:42:36;3.20;99.90
7654;DHT22;3869;48.406;10.774;2022-11-15T07:45:24;3.30;99.90
7654;DHT22;3869;48.406;10.774;2022-11-15T07:47:53;3.30;99.90
7654;DHT22;3869;48.406;10.774;2022-11-15T07:50:23;3.40;99.90
7654;DHT22;3869;48.406;10.774;2022-11-15T07:52:55;3.50;99.90
7654;DHT22;3869;48.406;10.774;2022-11-15T07:55:23;3.50;99.90
7654;DHT22;3869;48.406;10.774;2022-11-15T07:57:51;3.60;99.90
7654;DHT22;3869;48.406;10.774;2022-11-15T08:00:19;3.70;99.90
7654;DHT22;3869;48.406;10.774;2022-11-15T08:02:47;3.70;99.90
7654;DHT22;3869;48.406;10.774;2022-11-15T08:05:16;3.70;99.90
7654;DHT22;3869;48.406;10.774;2022-11-15T08:07:43;3.80;99.90
7654;DHT22;3869;48.406;10.774;2022-11-15T08:10:13;3.80;99.90
7654;DHT22;3869;48.406;10.774;2022-11-15T08:12:43;3.90;99.90
7654;DHT22;3869;48.406;10.774;2022-11-15T08:15:11;4.00;99.90
7654;DHT22;3869;48.406;10.774;2022-11-15T08:17:39;4.10;99.90
7654;DHT22;3869;48.406;10.774;2022-11-15T08:20:08;4.20;99.90
7654;DHT22;3869;48.406;10.774;2022-11-15T08:22:36;4.20;99.90
7654;DHT22;3869;48.406;10.774;2022-11-15T08:25:04;4.30;99.90
7654;DHT22;3869;48.406;10.774;2022-11-15T08:27:34;4.40;99.90
7654;DHT22;3869;48.406;10.774;2022-11-15T08:30:02;4.50;99.90
7654;DHT22;3869;48.406;10.774;2022-11-15T08:32:30;4.60;99.90
7654;DHT22;3869;48.406;10.774;2022-11-15T08:34:58;4.70;99.90
7654;DHT22;3869;48.406;10.774;2022-11-15T08:37:26;4.80;99.90
7654;DHT22;3869;48.406;10.774;2022-11-15T08:39:54;4.80;99.90
7654;DHT22;3869;48.406;10.774;2022-11-15T08:42:22;4.90;99.90
7654;DHT22;3869;48.406;10.774;2022-11-15T08:44:51;5.00;99.90
7654;DHT22;3869;48.406;10.774;2022-11-15T08:47:19;5.10;99.90
7654;DHT22;3869;48.406;10.774;2022-11-15T08:49:47;5.20;99.90
7654;DHT22;3869;48.406;10.774;2022-11-15T08:52:15;5.20;99.90
7654;DHT22;3869;48.406;10.774;2022-11-15T08:54:43;5.30;99.90
7654;DHT22;3869;48.406;10.774;2022-11-15T08:57:11;5.40;99.90
7654;DHT22;3869;48.406;10.774;2022-11-15T08:59:39;5.50;99.90
7654;DHT22;3869;48.406;10.774;2022-11-15T09:02:12;5.50;99.90
7654;DHT22;3869;48.406;10.774;2022-11-15T09:04:41;5.60;99.90
7654;DHT22;3869;48.406;10.774;2022-11-15T09:07:10;5.70;99.90
7654;DHT22;3869;48.406;10.774;2022-11-15T09:09:38;5.70;99.90
7654;DHT22;3869;48.406;10.774;2022-11-15T09:12:07;5.80;99.90
7654;DHT22;3869;48.406;10.774;2022-11-15T09:14:35;5.90;99.90
7654;DHT22;3869;48.406;10.774;2022-11-15T09:17:03;6.00;99.90
7654;DHT22;3869;48.406;10.774;2022-11-15T09:19:32;6.10;99.90
7654;DHT22;3869;48.406;10.774;2022-11-15T09:22:00;6.10;99.90
7654;DHT22;3869;48.406;10.774;2022-11-15T09:24:28;6.30;99.90
7654;DHT22;3869;48.406;10.774;2022-11-15T09:26:56;6.30;99.90
7654;DHT22;3869;48.406;10.774;2022-11-15T09:29:24;6.40;99.90
7654;DHT22;3869;48.406;10.774;2022-11-15T09:31:52;6.50;99.90
7654;DHT22;3869;48.406;10.774;2022-11-15T09:34:20;6.60;99.90
7654;DHT22;3869;48.406;10.774;2022-11-15T09:36:49;6.60;99.90
7654;DHT22;3869;48.406;10.774;2022-11-15T09:39:17;6.70;99.90
7654;DHT22;3869;48.406;10.774;2022-11-15T09:42:02;6.70;99.90
7654;DHT22;3869;48.406;10.774;2022-11-15T09:44:42;6.80;99.90
7654;DHT22;3869;48.406;10.774;2022-11-15T09:47:40;6.90;99.90
7654;DHT22;3869;48.406;10.774;2022-11-15T09:50:15;6.90;99.90
7654;DHT22;3869;48.406;10.774;2022-11-15T09:52:46;7.10;99.90
7654;DHT22;3869;48.406;10.774;2022-11-15T09:55:14;7.10;99.90
7654;DHT22;3869;48.406;10.774;2022-11-15T09:57:53;7.20;99.90
7654;DHT22;3869;48.406;10.774;2022-11-15T10:00:25;7.20;99.90
7654;DHT22;3869;48.406;10.774;2022-11-15T10:03:16;7.30;99.90
7654;DHT22;3869;48.406;10.774;2022-11-15T10:05:46;7.40;99.90
7654;DHT22;3869;48.406;10.774;2022-11-15T10:08:30;7.40;99.90
7654;DHT22;3869;48.406;10.774;2022-11-15T10:11:02;7.50;99.90
7654;DHT22;3869;48.406;10.774;2022-11-15T10:13:53;7.50;99.90
7654;DHT22;3869;48.406;10.774;2022-11-15T10:16:50;7.60;99.90
7654;DHT22;3869;48.406;10.774;2022-11-15T10:19:25;7.70;99.90
7654;DHT22;3869;48.406;10.774;2022-11-15T10:22:02;7.80;99.90
7654;DHT22;3869;48.406;10.774;2022-11-15T10:24:35;7.80;99.90
7654;DHT22;3869;48.406;10.774;2022-11-15T10:27:09;7.90;99.90
7654;DHT22;3869;48.406;10.774;2022-11-15T10:29:43;7.90;99.90
7654;DHT22;3869;48.406;10.774;2022-11-15T10:32:12;8.00;99.90
7654;DHT22;3869;48.406;10.774;2022-11-15T10:34:41;8.00;99.90
7654;DHT22;3869;48.406;10.774;2022-11-15T10:37:09;8.10;99.90
7654;DHT22;3869;48.406;10.774;2022-11-15T10:39:38;8.20;99.90
7654;DHT22;3869;48.406;10.774;2022-11-15T10:42:17;8.30;99.90
7654;DHT22;3869;48.406;10.774;2022-11-15T10:44:45;8.40;99.90
7654;DHT22;3869;48.406;10.774;2022-11-15T10:47:27;8.40;99.90
7654;DHT22;3869;48.406;10.774;2022-11-15T10:50:06;8.50;99.90
7654;DHT22;3869;48.406;10.774;2022-11-15T10:52:36;8.60;99.90
7654;DHT22;3869;48.406;10.774;2022-11-15T10:55:21;8.70;99.90
7654;DHT22;3869;48.406;10.774;2022-11-15T10:57:51;8.80;99.90
7654;DHT22;3869;48.406;10.774;2022-11-15T11:00:29;8.80;99.90
7654;DHT22;3869;48.406;10.774;2022-11-15T11:03:00;8.90;99.90
7654;DHT22;3869;48.406;10.774;2022-11-15T11:05:30;9.00;99.90
7654;DHT22;3869;48.406;10.774;2022-11-15T11:08:22;9.10;99.90
7654;DHT22;3869;48.406;10.774;2022-11-15T11:10:56;9.20;99.90
7654;DHT22;3869;48.406;10.774;2022-11-15T11:13:29;9.20;99.90
7654;DHT22;3869;48.406;10.774;2022-11-15T11:16:09;9.30;99.90
7654;DHT22;3869;48.406;10.774;2022-11-15T11:18:49;9.30;99.90
7654;DHT22;3869;48.406;10.774;2022-11-15T11:21:26;9.40;99.90
7654;DHT22;3869;48.406;10.774;2022-11-15T11:24:10;9.50;99.90
7654;DHT22;3869;48.406;10.774;2022-11-15T11:26:46;9.50;99.90
7654;DHT22;3869;48.406;10.774;2022-11-15T11:29:34;9.60;99.90
7654;DHT22;3869;48.406;10.774;2022-11-15T11:32:20;9.60;99.90
7654;DHT22;3869;48.406;10.774;2022-11-15T11:34:57;9.70;99.90
7654;DHT22;3869;48.406;10.774;2022-11-15T11:37:32;9.80;99.90
7654;DHT22;3869;48.406;10.774;2022-11-15T11:40:13;9.90;99.90
7654;DHT22;3869;48.406;10.774;2022-11-15T11:42:53;9.90;99.90
7654;DHT22;3869;48.406;10.774;2022-11-15T11:48:26;10.10;99.90
7654;DHT22;3869;48.406;10.774;2022-11-15T11:51:05;10.10;99.90
7654;DHT22;3869;48.406;10.774;2022-11-15T11:53:39;10.20;99.90
7654;DHT22;3869;48.406;10.774;2022-11-15T11:56:17;10.30;99.90
7654;DHT22;3869;48.406;10.774;2022-11-15T11:58:50;10.30;99.90
7654;DHT22;3869;48.406;10.774;2022-11-15T12:01:23;10.40;99.90
7654;DHT22;3869;48.406;10.774;2022-11-15T12:03:55;10.40;99.90
7654;DHT22;3869;48.406;10.774;2022-11-15T12:06:30;10.40;99.90
7654;DHT22;3869;48.406;10.774;2022-11-15T12:09:02;10.50;99.90
7654;DHT22;3869;48.406;10.774;2022-11-15T12:11:37;10.50;99.90
7654;DHT22;3869;48.406;10.774;2022-11-15T12:14:16;10.60;99.90
7654;DHT22;3869;48.406;10.774;2022-11-15T12:16:47;10.60;99.90
7654;DHT22;3869;48.406;10.774;2022-11-15T12:19:15;10.60;99.90
7654;DHT22;3869;48.406;10.774;2022-11-15T12:21:46;10.70;99.90
7654;DHT22;3869;48.406;10.774;2022-11-15T12:24:19;10.80;99.90
7654;DHT22;3869;48.406;10.774;2022-11-15T12:26:50;10.80;99.90
7654;DHT22;3869;48.406;10.774;2022-11-15T12:29:26;10.90;99.90
7654;DHT22;3869;48.406;10.774;2022-11-15T12:31:56;11.00;99.90
7654;DHT22;3869;48.406;10.774;2022-11-15T12:34:35;11.00;99.90
7654;DHT22;3869;48.406;10.774;2022-11-15T12:46:02;11.20;99.90
7654;DHT22;3869;48.406;10.774;2022-11-15T12:48:50;11.20;99.90
7654;DHT22;3869;48.406;10.774;2022-11-15T12:51:20;11.30;99.90
7654;DHT22;3869;48.406;10.774;2022-11-15T12:53:48;11.30;99.90
7654;DHT22;3869;48.406;10.774;2022-11-15T12:56:23;11.30;99.90
7654;DHT22;3869;48.406;10.774;2022-11-15T12:58:54;11.30;99.90
7654;DHT22;3869;48.406;10.774;2022-11-15T13:01:54;11.30;99.90
7654;DHT22;3869;48.406;10.774;2022-11-15T13:04:26;11.30;99.90
7654;DHT22;3869;48.406;10.774;2022-11-15T13:06:56;11.20;99.90
7654;DHT22;3869;48.406;10.774;2022-11-15T13:09:54;11.20;99.90
7654;DHT22;3869;48.406;10.774;2022-11-15T13:12:54;11.20;99.90
7654;DHT22;3869;48.406;10.774;2022-11-15T13:15:54;11.20;99.90
7654;DHT22;3869;48.406;10.774;2022-11-15T13:18:31;11.20;99.90
7654;DHT22;3869;48.406;10.774;2022-11-15T13:21:01;11.20;99.90
7654;DHT22;3869;48.406;10.774;2022-11-15T13:23:53;11.20;99.90
7654;DHT22;3869;48.406;10.774;2022-11-15T13:26:22;11.20;99.90
7654;DHT22;3869;48.406;10.774;2022-11-15T13:28:51;11.20;99.90
7654;DHT22;3869;48.406;10.774;2022-11-15T13:31:25;11.30;99.90
7654;DHT22;3869;48.406;10.774;2022-11-15T13:33:59;11.30;99.90
7654;DHT22;3869;48.406;10.774;2022-11-15T13:36:30;11.30;99.90
7654;DHT22;3869;48.406;10.774;2022-11-15T13:39:02;11.30;99.90
7654;DHT22;3869;48.406;10.774;2022-11-15T13:41:32;11.30;99.90
7654;DHT22;3869;48.406;10.774;2022-11-15T13:44:03;11.30;99.90
7654;DHT22;3869;48.406;10.774;2022-11-15T13:46:32;11.20;99.90
7654;DHT22;3869;48.406;10.774;2022-11-15T13:49:03;11.20;99.90
7654;DHT22;3869;48.406;10.774;2022-11-15T13:51:36;11.10;99.90
7654;DHT22;3869;48.406;10.774;2022-11-15T13:54:14;11.20;99.90
7654;DHT22;3869;48.406;10.774;2022-11-15T13:56:47;11.10;99.90
7654;DHT22;3869;48.406;10.774;2022-11-15T13:59:20;11.00;99.90
7654;DHT22;3869;48.406;10.774;2022-11-15T14:01:51;11.00;99.90
7654;DHT22;3869;48.406;10.774;2022-11-15T14:04:23;10.90;99.90
7654;DHT22;3869;48.406;10.774;2022-11-15T14:06:54;10.90;99.90
7654;DHT22;3869;48.406;10.774;2022-11-15T14:09:32;10.80;99.90
7654;DHT22;3869;48.406;10.774;2022-11-15T14:12:02;10.80;99.90
7654;DHT22;3869;48.406;10.774;2022-11-15T14:14:30;10.80;99.90
7654;DHT22;3869;48.406;10.774;2022-11-15T14:16:59;10.70;99.90
7654;DHT22;3869;48.406;10.774;2022-11-15T14:19:39;10.70;99.90
7654;DHT22;3869;48.406;10.774;2022-11-15T14:22:09;10.70;99.90
7654;DHT22;3869;48.406;10.774;2022-11-15T14:24:37;10.70;99.90
7654;DHT22;3869;48.406;10.774;2022-11-15T14:27:24;10.70;99.90
7654;DHT22;3869;48.406;10.774;2022-11-15T14:29:52;10.60;99.90
7654;DHT22;3869;48.406;10.774;2022-11-15T14:32:22;10.50;99.90
7654;DHT22;3869;48.406;10.774;2022-11-15T14:34:56;10.40;99.90
7654;DHT22;3869;48.406;10.774;2022-11-15T14:37:26;10.30;99.90
7654;DHT22;3869;48.406;10.774;2022-11-15T14:39:55;10.40;99.90
7654;DHT22;3869;48.406;10.774;2022-11-15T14:42:24;10.30;99.90
7654;DHT22;3869;48.406;10.774;2022-11-15T14:44:52;10.30;99.90
7654;DHT22;3869;48.406;10.774;2022-11-15T14:47:20;10.30;99.90
7654;DHT22;3869;48.406;10.774;2022-11-15T14:49:48;10.30;99.90
7654;DHT22;3869;48.406;10.774;2022-11-15T14:52:25;10.30;99.90
7654;DHT22;3869;48.406;10.774;2022-11-15T14:54:59;10.20;99.90
7654;DHT22;3869;48.406;10.774;2022-11-15T14:57:28;10.30;99.90
7654;DHT22;3869;48.406;10.774;2022-11-15T14:59:56;10.20;99.90
7654;DHT22;3869;48.406;10.774;2022-11-15T15:02:26;10.20;99.90
7654;DHT22;3869;48.406;10.774;2022-11-15T15:04:54;10.20;99.90
7654;DHT22;3869;48.406;10.774;2022-11-15T15:07:23;10.10;99.90
7654;DHT22;3869;48.406;10.774;2022-11-15T15:09:52;10.10;99.90
7654;DHT22;3869;48.406;10.774;2022-11-15T15:12:40;10.10;99.90
7654;DHT22;3869;48.406;10.774;2022-11-15T15:15:13;10.00;99.90
7654;DHT22;3869;48.406;10.774;2022-11-15T15:17:41;10.00;99.90
7654;DHT22;3869;48.406;10.774;2022-11-15T15:20:10;9.90;99.90
7654;DHT22;3869;48.406;10.774;2022-11-15T15:22:40;9.90;99.90
7654;DHT22;3869;48.406;10.774;2022-11-15T15:25:23;9.80;99.90
7654;DHT22;3869;48.406;10.774;2022-11-15T15:27:53;9.80;99.90
7654;DHT22;3869;48.406;10.774;2022-11-15T15:30:21;9.70;99.90
7654;DHT22;3869;48.406;10.774;2022-11-15T15:32:50;9.70;99.90
7654;DHT22;3869;48.406;10.774;2022-11-15T15:35:18;9.60;99.90
7654;DHT22;3869;48.406;10.774;2022-11-15T15:37:48;9.60;99.90
7654;DHT22;3869;48.406;10.774;2022-11-15T15:40:19;9.60;99.90
7654;DHT22;3869;48.406;10.774;2022-11-15T15:42:48;9.60;99.90
7654;DHT22;3869;48.406;10.774;2022-11-15T15:45:16;9.60;99.90
7654;DHT22;3869;48.406;10.774;2022-11-15T15:47:45;9.60;99.90
7654;DHT22;3869;48.406;10.774;2022-11-15T15:50:20;9.50;99.90
7654;DHT22;3869;48.406;10.774;2022-11-15T15:52:50;9.50;99.90
7654;DHT22;3869;48.406;10.774;2022-11-15T15:55:18;9.50;99.90
7654;DHT22;3869;48.406;10.774;2022-11-15T15:57:47;9.40;99.90
7654;DHT22;3869;48.406;10.774;2022-11-15T16:00:16;9.40;99.90
7654;DHT22;3869;48.406;10.774;2022-11-15T16:02:44;9.30;99.90
7654;DHT22;3869;48.406;10.774;2022-11-15T16:05:13;9.30;99.90
7654;DHT22;3869;48.406;10.774;2022-11-15T16:07:41;9.20;99.90
7654;DHT22;3869;48.406;10.774;2022-11-15T16:10:18;9.20;99.90
7654;DHT22;3869;48.406;10.774;2022-11-15T16:12:47;9.20;99.90
7654;DHT22;3869;48.406;10.774;2022-11-15T16:15:15;9.20;99.90
7654;DHT22;3869;48.406;10.774;2022-11-15T16:17:47;9.20;99.90
7654;DHT22;3869;48.406;10.774;2022-11-15T16:20:23;9.20;99.90
7654;DHT22;3869;48.406;10.774;2022-11-15T16:22:54;9.10;99.90
7654;DHT22;3869;48.406;10.774;2022-11-15T16:25:23;9.00;99.90
7654;DHT22;3869;48.406;10.774;2022-11-15T16:27:52;9.00;99.90
7654;DHT22;3869;48.406;10.774;2022-11-15T16:30:21;9.00;99.90
7654;DHT22;3869;48.406;10.774;2022-11-15T16:32:49;9.00;99.90
7654;DHT22;3869;48.406;10.774;2022-11-15T16:35:18;9.00;99.90
7654;DHT22;3869;48.406;10.774;2022-11-15T16:37:46;9.00;99.90
7654;DHT22;3869;48.406;10.774;2022-11-15T16:40:24;9.00;99.90
7654;DHT22;3869;48.406;10.774;2022-11-15T16:42:53;9.00;99.90
7654;DHT22;3869;48.406;10.774;2022-11-15T16:45:22;9.00;99.90
7654;DHT22;3869;48.406;10.774;2022-11-15T16:47:50;9.00;99.90